SWA2474 KDCA-KFLL
Flight info
| Callsign | SWA2474 |
|---|---|
| Flight time | 1h 43m |
| Altitude | 36000 |
| Route | AMEEE1 SCOOB EARZZ CHIEZ Y291 MAJIK CUUDA3 |
| Aircraft | B738/M-SDE2E3FGHIRWXY/LB1 |
Departure
| Time | 2026-04-25 21:26 |
|---|---|
| Airport | Ronald Reagan Washington National Airport (KDCA) |
Arrival
| Time | 2026-04-25 23:09 |
|---|---|
| Airport | Fort Lauderdale Hollywood International Airport (KFLL) |
| Time | Latitude | Longitude | Altitude | Speed | Heading |
|---|---|---|---|---|---|
| 2026-04-25 20:50 | 38.84644 | -77.04201 | 23 ft | 0 kts | 334° |
| 2026-04-25 21:01 | 38.84625 | -77.04189 | 27 ft | 4 kts | 334° |
| 2026-04-25 21:02 | 38.84602 | -77.04176 | 25 ft | 4 kts | 358° |
| 2026-04-25 21:02 | 38.84588 | -77.04179 | 27 ft | 4 kts | 43° |
| 2026-04-25 21:02 | 38.84575 | -77.04206 | 27 ft | 2 kts | 77° |
| 2026-04-25 21:02 | 38.84570 | -77.04233 | 28 ft | 4 kts | 78° |
| 2026-04-25 21:03 | 38.84565 | -77.04267 | 27 ft | 4 kts | 79° |
| 2026-04-25 21:03 | 38.84563 | -77.04291 | 27 ft | 4 kts | 98° |
| 2026-04-25 21:06 | 38.84562 | -77.04281 | 27 ft | 4 kts | 92° |
| 2026-04-25 21:06 | 38.84574 | -77.04217 | 27 ft | 10 kts | 77° |
| 2026-04-25 21:06 | 38.84589 | -77.04120 | 25 ft | 12 kts | 73° |
| 2026-04-25 21:06 | 38.84601 | -77.04080 | 23 ft | 6 kts | 64° |
| 2026-04-25 21:07 | 38.84602 | -77.04078 | 23 ft | 0 kts | 63° |
| 2026-04-25 21:09 | 38.84615 | -77.04055 | 24 ft | 5 kts | 49° |
| 2026-04-25 21:09 | 38.84646 | -77.04029 | 23 ft | 5 kts | 27° |
| 2026-04-25 21:09 | 38.84679 | -77.04009 | 27 ft | 5 kts | 21° |
| 2026-04-25 21:10 | 38.84711 | -77.03991 | 23 ft | 5 kts | 24° |
| 2026-04-25 21:10 | 38.84722 | -77.03985 | 23 ft | 6 kts | 25° |
| 2026-04-25 21:11 | 38.84737 | -77.03976 | 24 ft | 6 kts | 25° |
| 2026-04-25 21:14 | 38.84745 | -77.03971 | 25 ft | 6 kts | 24° |
| 2026-04-25 21:14 | 38.84780 | -77.03951 | 26 ft | 5 kts | 20° |
| 2026-04-25 21:14 | 38.84816 | -77.03944 | 24 ft | 6 kts | 0° |
| 2026-04-25 21:15 | 38.84864 | -77.03933 | 24 ft | 8 kts | 39° |
| 2026-04-25 21:15 | 38.84905 | -77.03890 | 23 ft | 8 kts | 9° |
| 2026-04-25 21:15 | 38.84957 | -77.03896 | 23 ft | 7 kts | 356° |
| 2026-04-25 21:15 | 38.85008 | -77.03901 | 23 ft | 7 kts | 355° |
| 2026-04-25 21:16 | 38.85058 | -77.03907 | 24 ft | 8 kts | 355° |
| 2026-04-25 21:16 | 38.85117 | -77.03914 | 23 ft | 9 kts | 355° |
| 2026-04-25 21:16 | 38.85187 | -77.03920 | 23 ft | 11 kts | 354° |
| 2026-04-25 21:16 | 38.85268 | -77.03928 | 23 ft | 12 kts | 356° |
| 2026-04-25 21:17 | 38.85352 | -77.03937 | 23 ft | 12 kts | 356° |
| 2026-04-25 21:17 | 38.85436 | -77.03943 | 25 ft | 12 kts | 354° |
| 2026-04-25 21:17 | 38.85517 | -77.03952 | 24 ft | 12 kts | 353° |
| 2026-04-25 21:17 | 38.85597 | -77.03960 | 24 ft | 11 kts | 356° |
| 2026-04-25 21:18 | 38.85674 | -77.03968 | 26 ft | 12 kts | 356° |
| 2026-04-25 21:18 | 38.85767 | -77.03977 | 26 ft | 15 kts | 354° |
| 2026-04-25 21:18 | 38.85876 | -77.03989 | 25 ft | 15 kts | 356° |
| 2026-04-25 21:18 | 38.85952 | -77.03975 | 25 ft | 10 kts | 17° |
| 2026-04-25 21:19 | 38.85982 | -77.03964 | 23 ft | 0 kts | 16° |
| 2026-04-25 21:23 | 38.85982 | -77.03965 | 23 ft | 0 kts | 16° |
| 2026-04-25 21:23 | 38.85984 | -77.03964 | 23 ft | 1 kts | 16° |
| 2026-04-25 21:23 | 38.86003 | -77.03956 | 25 ft | 5 kts | 17° |
| 2026-04-25 21:24 | 38.86043 | -77.03941 | 23 ft | 7 kts | 16° |
| 2026-04-25 21:24 | 38.86092 | -77.03908 | 22 ft | 8 kts | 48° |
| 2026-04-25 21:24 | 38.86099 | -77.03876 | 22 ft | 2 kts | 98° |
| 2026-04-25 21:24 | 38.86089 | -77.03868 | 25 ft | 2 kts | 168° |
| 2026-04-25 21:25 | 38.86077 | -77.03867 | 23 ft | 2 kts | 176° |
| 2026-04-25 21:25 | 38.85930 | -77.03855 | 26 ft | 58 kts | 175° |
| 2026-04-25 21:25 | 38.85253 | -77.03785 | 22 ft | 135 kts | 176° |
| 2026-04-25 21:25 | 38.84106 | -77.03675 | 222 ft | 182 kts | 174° |
| 2026-04-25 21:26 | 38.82828 | -77.03588 | 1132 ft | 189 kts | 165° |
| 2026-04-25 21:26 | 38.81485 | -77.03248 | 1911 ft | 204 kts | 165° |
| 2026-04-25 21:26 | 38.80046 | -77.02841 | 2272 ft | 222 kts | 163° |
| 2026-04-25 21:26 | 38.78489 | -77.02471 | 2791 ft | 229 kts | 168° |
| 2026-04-25 21:27 | 38.76904 | -77.02138 | 3493 ft | 230 kts | 169° |
| 2026-04-25 21:27 | 38.75330 | -77.01775 | 4192 ft | 233 kts | 163° |
| 2026-04-25 21:27 | 38.73833 | -77.00754 | 4454 ft | 259 kts | 146° |
| 2026-04-25 21:27 | 38.72311 | -76.99362 | 4939 ft | 276 kts | 146° |
| 2026-04-25 21:28 | 38.70745 | -76.97934 | 5802 ft | 276 kts | 147° |
| 2026-04-25 21:28 | 38.69195 | -76.96531 | 6603 ft | 278 kts | 147° |
| 2026-04-25 21:28 | 38.67598 | -76.95098 | 7348 ft | 282 kts | 148° |
| 2026-04-25 21:28 | 38.65976 | -76.93650 | 8107 ft | 286 kts | 148° |
| 2026-04-25 21:29 | 38.64455 | -76.92299 | 8871 ft | 287 kts | 149° |
| 2026-04-25 21:29 | 38.62881 | -76.90905 | 9654 ft | 289 kts | 149° |
| 2026-04-25 21:29 | 38.61241 | -76.89456 | 10307 ft | 295 kts | 148° |
| 2026-04-25 21:29 | 38.59490 | -76.87921 | 10526 ft | 317 kts | 149° |
| 2026-04-25 21:30 | 38.57605 | -76.86262 | 10699 ft | 340 kts | 149° |
| 2026-04-25 21:30 | 38.55608 | -76.84504 | 11065 ft | 354 kts | 149° |
| 2026-04-25 21:30 | 38.53567 | -76.82690 | 11719 ft | 359 kts | 148° |
| 2026-04-25 21:30 | 38.52211 | -76.81474 | 12215 ft | 360 kts | 149° |
| 2026-04-25 21:31 | 38.49451 | -76.78997 | 13188 ft | 365 kts | 149° |
| 2026-04-25 21:31 | 38.47358 | -76.77122 | 13837 ft | 370 kts | 149° |
| 2026-04-25 21:31 | 38.45236 | -76.75226 | 14419 ft | 374 kts | 149° |
| 2026-04-25 21:31 | 38.43088 | -76.73311 | 14990 ft | 379 kts | 149° |
| 2026-04-25 21:32 | 38.40833 | -76.71565 | 15469 ft | 381 kts | 162° |
| 2026-04-25 21:32 | 38.38267 | -76.70860 | 16108 ft | 374 kts | 177° |
| 2026-04-25 21:32 | 38.35676 | -76.70473 | 16717 ft | 379 kts | 177° |
| 2026-04-25 21:32 | 38.33062 | -76.70086 | 17141 ft | 387 kts | 177° |
| 2026-04-25 21:33 | 38.30372 | -76.69678 | 17673 ft | 392 kts | 177° |
| 2026-04-25 21:33 | 38.27649 | -76.69253 | 18227 ft | 396 kts | 176° |
| 2026-04-25 21:33 | 38.24895 | -76.68815 | 18713 ft | 400 kts | 176° |
| 2026-04-25 21:33 | 38.22185 | -76.68380 | 19232 ft | 402 kts | 176° |
| 2026-04-25 21:34 | 38.19410 | -76.67931 | 19828 ft | 402 kts | 176° |
| 2026-04-25 21:34 | 38.16626 | -76.67482 | 20300 ft | 406 kts | 176° |
| 2026-04-25 21:34 | 38.13801 | -76.67028 | 20742 ft | 411 kts | 176° |
| 2026-04-25 21:34 | 38.10960 | -76.66572 | 21238 ft | 412 kts | 176° |
| 2026-04-25 21:35 | 38.08104 | -76.66180 | 21773 ft | 412 kts | 179° |
| 2026-04-25 21:35 | 38.05243 | -76.65952 | 22217 ft | 415 kts | 181° |
| 2026-04-25 21:35 | 38.02336 | -76.65787 | 22646 ft | 419 kts | 181° |
| 2026-04-25 21:35 | 37.99413 | -76.65634 | 23092 ft | 421 kts | 181° |
| 2026-04-25 21:36 | 37.96475 | -76.65472 | 23531 ft | 424 kts | 181° |
| 2026-04-25 21:36 | 37.93511 | -76.65294 | 23900 ft | 427 kts | 181° |
| 2026-04-25 21:36 | 37.90541 | -76.65104 | 24281 ft | 429 kts | 181° |
| 2026-04-25 21:36 | 37.87557 | -76.64906 | 24655 ft | 430 kts | 181° |
| 2026-04-25 21:37 | 37.84559 | -76.64705 | 25034 ft | 432 kts | 181° |
| 2026-04-25 21:37 | 37.82565 | -76.64570 | 25275 ft | 434 kts | 181° |
| 2026-04-25 21:37 | 37.78519 | -76.64297 | 25747 ft | 437 kts | 181° |
| 2026-04-25 21:37 | 37.75473 | -76.64092 | 26099 ft | 439 kts | 181° |
| 2026-04-25 21:38 | 37.72415 | -76.63886 | 26454 ft | 441 kts | 182° |
| 2026-04-25 21:38 | 37.69345 | -76.63680 | 26788 ft | 443 kts | 182° |
| 2026-04-25 21:38 | 37.66266 | -76.63474 | 27110 ft | 445 kts | 182° |
| 2026-04-25 21:38 | 37.63204 | -76.63269 | 27442 ft | 447 kts | 182° |
| 2026-04-25 21:39 | 37.60090 | -76.63061 | 27766 ft | 449 kts | 182° |
| 2026-04-25 21:39 | 37.56975 | -76.63041 | 28053 ft | 447 kts | 188° |
| 2026-04-25 21:39 | 37.53882 | -76.63373 | 28389 ft | 446 kts | 191° |
| 2026-04-25 21:39 | 37.50801 | -76.63853 | 28726 ft | 446 kts | 193° |
| 2026-04-25 21:40 | 37.47714 | -76.64376 | 29030 ft | 448 kts | 193° |
| 2026-04-25 21:40 | 37.44614 | -76.64890 | 29327 ft | 451 kts | 192° |
| 2026-04-25 21:40 | 37.41490 | -76.65381 | 29651 ft | 452 kts | 192° |
| 2026-04-25 21:40 | 37.38372 | -76.65842 | 30161 ft | 449 kts | 192° |
| 2026-04-25 21:41 | 37.35281 | -76.66277 | 30615 ft | 445 kts | 192° |
| 2026-04-25 21:41 | 37.32206 | -76.66701 | 30922 ft | 445 kts | 192° |
| 2026-04-25 21:41 | 37.29118 | -76.67124 | 31155 ft | 448 kts | 192° |
| 2026-04-25 21:41 | 37.26019 | -76.67545 | 31431 ft | 447 kts | 192° |
| 2026-04-25 21:42 | 37.22939 | -76.67961 | 31874 ft | 443 kts | 192° |
| 2026-04-25 21:42 | 37.19882 | -76.68373 | 32283 ft | 440 kts | 192° |
| 2026-04-25 21:42 | 37.16839 | -76.68785 | 32547 ft | 441 kts | 192° |
| 2026-04-25 21:42 | 37.13780 | -76.69202 | 32707 ft | 444 kts | 192° |
| 2026-04-25 21:43 | 37.10709 | -76.69621 | 32961 ft | 444 kts | 192° |
| 2026-04-25 21:43 | 37.07645 | -76.70036 | 33365 ft | 440 kts | 192° |
| 2026-04-25 21:43 | 37.04612 | -76.70445 | 33771 ft | 437 kts | 192° |
| 2026-04-25 21:43 | 37.01590 | -76.70853 | 34014 ft | 437 kts | 192° |
| 2026-04-25 21:44 | 36.98554 | -76.71266 | 34148 ft | 440 kts | 192° |
| 2026-04-25 21:44 | 36.95501 | -76.71681 | 34283 ft | 441 kts | 192° |
| 2026-04-25 21:44 | 36.89399 | -76.72506 | 34688 ft | 442 kts | 192° |
| 2026-04-25 21:45 | 36.86345 | -76.72917 | 34905 ft | 441 kts | 192° |
| 2026-04-25 21:45 | 36.80272 | -76.73735 | 35298 ft | 442 kts | 192° |
| 2026-04-25 21:45 | 36.77169 | -76.74153 | 35473 ft | 443 kts | 192° |
| 2026-04-25 21:46 | 36.74145 | -76.74559 | 35684 ft | 442 kts | 192° |
| 2026-04-25 21:46 | 36.71090 | -76.74969 | 35840 ft | 443 kts | 192° |
| 2026-04-25 21:46 | 36.68010 | -76.75384 | 35772 ft | 447 kts | 192° |
| 2026-04-25 21:47 | 36.61831 | -76.76212 | 35799 ft | 445 kts | 192° |
| 2026-04-25 21:47 | 36.55710 | -76.77028 | 35781 ft | 441 kts | 192° |
| 2026-04-25 21:48 | 36.49637 | -76.77838 | 35790 ft | 437 kts | 192° |
| 2026-04-25 21:48 | 36.44614 | -76.78509 | 35799 ft | 436 kts | 191° |
| 2026-04-25 21:49 | 36.38526 | -76.79325 | 35797 ft | 444 kts | 191° |
| 2026-04-25 21:49 | 36.32345 | -76.80150 | 35783 ft | 448 kts | 191° |
| 2026-04-25 21:50 | 36.26125 | -76.80974 | 35795 ft | 451 kts | 191° |
| 2026-04-25 21:50 | 36.20061 | -76.81777 | 35810 ft | 451 kts | 191° |
| 2026-04-25 21:51 | 36.13805 | -76.82604 | 35802 ft | 451 kts | 191° |
| 2026-04-25 21:51 | 36.07625 | -76.83421 | 35816 ft | 449 kts | 191° |
| 2026-04-25 21:52 | 36.01423 | -76.84239 | 35792 ft | 447 kts | 191° |
| 2026-04-25 21:52 | 35.95246 | -76.85053 | 35822 ft | 445 kts | 191° |
| 2026-04-25 21:53 | 35.89207 | -76.86419 | 35797 ft | 435 kts | 205° |
| 2026-04-25 21:53 | 35.83641 | -76.89208 | 35811 ft | 432 kts | 207° |
| 2026-04-25 21:54 | 35.78094 | -76.92050 | 35801 ft | 432 kts | 207° |
| 2026-04-25 21:54 | 35.72537 | -76.94853 | 35825 ft | 432 kts | 206° |
| 2026-04-25 21:55 | 35.66958 | -76.97635 | 35834 ft | 433 kts | 206° |
| 2026-04-25 21:55 | 35.61359 | -77.00416 | 35843 ft | 434 kts | 206° |
| 2026-04-25 21:56 | 35.55742 | -77.03200 | 35837 ft | 436 kts | 206° |
| 2026-04-25 21:56 | 35.50137 | -77.05975 | 35824 ft | 438 kts | 206° |
| 2026-04-25 21:57 | 35.44482 | -77.08770 | 35839 ft | 439 kts | 206° |
| 2026-04-25 21:57 | 35.38800 | -77.11575 | 35835 ft | 441 kts | 206° |
| 2026-04-25 21:58 | 35.33107 | -77.14381 | 35835 ft | 442 kts | 206° |
| 2026-04-25 21:58 | 35.27389 | -77.17194 | 35835 ft | 443 kts | 206° |
| 2026-04-25 21:59 | 35.21676 | -77.20001 | 35834 ft | 443 kts | 206° |
| 2026-04-25 21:59 | 35.15960 | -77.22805 | 35849 ft | 442 kts | 206° |
| 2026-04-25 22:00 | 35.07419 | -77.26987 | 35839 ft | 440 kts | 206° |
| 2026-04-25 22:00 | 35.01745 | -77.29760 | 35861 ft | 438 kts | 206° |
| 2026-04-25 22:01 | 34.96119 | -77.32506 | 35845 ft | 437 kts | 206° |
| 2026-04-25 22:01 | 34.91393 | -77.34810 | 35867 ft | 436 kts | 206° |
| 2026-04-25 22:02 | 34.84848 | -77.37995 | 35851 ft | 435 kts | 206° |
| 2026-04-25 22:02 | 34.79227 | -77.40727 | 35880 ft | 434 kts | 205° |
| 2026-04-25 22:03 | 34.73600 | -77.43458 | 35867 ft | 436 kts | 205° |
| 2026-04-25 22:03 | 34.67947 | -77.46197 | 35855 ft | 438 kts | 205° |
| 2026-04-25 22:04 | 34.62279 | -77.48940 | 35866 ft | 440 kts | 205° |
| 2026-04-25 22:04 | 34.56566 | -77.51700 | 35861 ft | 442 kts | 205° |
| 2026-04-25 22:05 | 34.50815 | -77.54294 | 35824 ft | 448 kts | 197° |
| 2026-04-25 22:05 | 34.47752 | -77.55046 | 35934 ft | 448 kts | 194° |
| 2026-04-25 22:05 | 34.44681 | -77.55699 | 35893 ft | 450 kts | 193° |
| 2026-04-25 22:06 | 34.38492 | -77.56987 | 35883 ft | 451 kts | 193° |
| 2026-04-25 22:06 | 34.32303 | -77.58316 | 35881 ft | 451 kts | 193° |
| 2026-04-25 22:07 | 34.27124 | -77.59454 | 35881 ft | 451 kts | 194° |
| 2026-04-25 22:07 | 34.19943 | -77.61039 | 35871 ft | 451 kts | 194° |
| 2026-04-25 22:08 | 34.13776 | -77.62396 | 35883 ft | 450 kts | 194° |
| 2026-04-25 22:08 | 34.07623 | -77.63748 | 35866 ft | 448 kts | 194° |
| 2026-04-25 22:09 | 34.01498 | -77.65092 | 35863 ft | 447 kts | 194° |
| 2026-04-25 22:09 | 33.95381 | -77.66432 | 35888 ft | 446 kts | 194° |
| 2026-04-25 22:10 | 33.89312 | -77.67760 | 35868 ft | 446 kts | 194° |
| 2026-04-25 22:10 | 33.83218 | -77.69092 | 35870 ft | 445 kts | 193° |
| 2026-04-25 22:11 | 33.77118 | -77.70422 | 35881 ft | 445 kts | 193° |
| 2026-04-25 22:11 | 33.71018 | -77.71752 | 35885 ft | 446 kts | 193° |
| 2026-04-25 22:12 | 33.64948 | -77.73302 | 35873 ft | 446 kts | 198° |
| 2026-04-25 22:12 | 33.59982 | -77.74967 | 35873 ft | 446 kts | 199° |
| 2026-04-25 22:13 | 33.52002 | -77.77697 | 35882 ft | 449 kts | 198° |
| 2026-04-25 22:13 | 33.33412 | -77.83806 | 35865 ft | 455 kts | 198° |
| 2026-04-25 22:14 | 33.05621 | -77.92852 | 35896 ft | 461 kts | 197° |
| 2026-04-25 22:14 | 32.99431 | -77.94893 | 35895 ft | 461 kts | 198° |
| 2026-04-25 22:15 | 32.93304 | -77.96992 | 35892 ft | 461 kts | 198° |
| 2026-04-25 22:16 | 32.72150 | -78.04170 | 35882 ft | 456 kts | 198° |
| 2026-04-25 22:16 | 32.47828 | -78.12414 | 35896 ft | 452 kts | 198° |
| 2026-04-25 22:17 | 32.23694 | -78.20561 | 35900 ft | 450 kts | 198° |
| 2026-04-25 22:17 | 31.99646 | -78.28633 | 35906 ft | 448 kts | 197° |
| 2026-04-25 22:18 | 31.75613 | -78.36656 | 35914 ft | 449 kts | 197° |
| 2026-04-25 22:18 | 31.51545 | -78.44648 | 35925 ft | 450 kts | 197° |
| 2026-04-25 22:19 | 31.27303 | -78.52501 | 35940 ft | 453 kts | 197° |
| 2026-04-25 22:19 | 31.02898 | -78.60375 | 35944 ft | 456 kts | 196° |
| 2026-04-25 22:20 | 30.83483 | -78.66608 | 35938 ft | 458 kts | 196° |
| 2026-04-25 22:20 | 30.77326 | -78.68579 | 35934 ft | 459 kts | 197° |
| 2026-04-25 22:21 | 30.71200 | -78.70538 | 35925 ft | 460 kts | 197° |
| 2026-04-25 22:21 | 30.65021 | -78.72511 | 35945 ft | 460 kts | 197° |
| 2026-04-25 22:22 | 30.58842 | -78.74481 | 35931 ft | 461 kts | 197° |
| 2026-04-25 22:22 | 30.52656 | -78.76451 | 35937 ft | 461 kts | 197° |
| 2026-04-25 22:23 | 30.46471 | -78.78419 | 35915 ft | 461 kts | 197° |
| 2026-04-25 22:23 | 30.40276 | -78.80387 | 35943 ft | 461 kts | 197° |
| 2026-04-25 22:24 | 30.34078 | -78.82353 | 35934 ft | 462 kts | 197° |
| 2026-04-25 22:24 | 30.27875 | -78.84319 | 35941 ft | 462 kts | 197° |
| 2026-04-25 22:25 | 30.21658 | -78.86286 | 35928 ft | 463 kts | 197° |
| 2026-04-25 22:25 | 30.15442 | -78.88251 | 35946 ft | 463 kts | 197° |
| 2026-04-25 22:26 | 30.09353 | -78.90175 | 35930 ft | 463 kts | 197° |
| 2026-04-25 22:26 | 30.03142 | -78.92136 | 35933 ft | 462 kts | 197° |
| 2026-04-25 22:27 | 29.96950 | -78.94088 | 35942 ft | 461 kts | 197° |
| 2026-04-25 22:27 | 29.90756 | -78.96038 | 35926 ft | 461 kts | 197° |
| 2026-04-25 22:28 | 29.84567 | -78.97985 | 35951 ft | 461 kts | 197° |
| 2026-04-25 22:28 | 29.78333 | -78.99781 | 35913 ft | 463 kts | 192° |
| 2026-04-25 22:29 | 29.71965 | -79.00965 | 35933 ft | 465 kts | 190° |
| 2026-04-25 22:29 | 29.65555 | -79.02051 | 35951 ft | 466 kts | 190° |
| 2026-04-25 22:30 | 29.56156 | -79.03729 | 35942 ft | 468 kts | 191° |
| 2026-04-25 22:30 | 29.50905 | -79.04695 | 35955 ft | 468 kts | 191° |
| 2026-04-25 22:31 | 29.43433 | -79.06074 | 35926 ft | 467 kts | 191° |
| 2026-04-25 22:31 | 29.37022 | -79.07253 | 35940 ft | 466 kts | 191° |
| 2026-04-25 22:32 | 29.30622 | -79.08428 | 35946 ft | 465 kts | 191° |
| 2026-04-25 22:32 | 29.24244 | -79.09597 | 35950 ft | 464 kts | 191° |
| 2026-04-25 22:33 | 29.17865 | -79.10764 | 35936 ft | 464 kts | 191° |
| 2026-04-25 22:33 | 29.11337 | -79.11958 | 35950 ft | 464 kts | 191° |
| 2026-04-25 22:34 | 29.02299 | -79.13608 | 35942 ft | 464 kts | 191° |
| 2026-04-25 22:34 | 28.77003 | -79.18204 | 35953 ft | 465 kts | 191° |
| 2026-04-25 22:35 | 28.62961 | -79.20754 | 35923 ft | 467 kts | 191° |
| 2026-04-25 22:35 | 28.56555 | -79.21914 | 35948 ft | 466 kts | 191° |
| 2026-04-25 22:36 | 28.50371 | -79.23030 | 35932 ft | 466 kts | 191° |
| 2026-04-25 22:36 | 28.42579 | -79.24436 | 35952 ft | 466 kts | 191° |
| 2026-04-25 22:37 | 28.36217 | -79.25582 | 35942 ft | 466 kts | 191° |
| 2026-04-25 22:37 | 28.29890 | -79.26940 | 35917 ft | 464 kts | 198° |
| 2026-04-25 22:38 | 28.23707 | -79.28981 | 35920 ft | 463 kts | 200° |
| 2026-04-25 22:38 | 28.17544 | -79.31080 | 35953 ft | 462 kts | 199° |
| 2026-04-25 22:39 | 28.11349 | -79.33120 | 35611 ft | 465 kts | 199° |
| 2026-04-25 22:39 | 28.08246 | -79.34125 | 35217 ft | 461 kts | 199° |
| 2026-04-25 22:39 | 28.05180 | -79.35114 | 34893 ft | 456 kts | 199° |
| 2026-04-25 22:40 | 28.02134 | -79.36096 | 34441 ft | 454 kts | 199° |
| 2026-04-25 22:40 | 27.99105 | -79.37074 | 34096 ft | 450 kts | 199° |
| 2026-04-25 22:40 | 27.96102 | -79.38044 | 33631 ft | 449 kts | 199° |
| 2026-04-25 22:40 | 27.93107 | -79.39012 | 33189 ft | 446 kts | 199° |
| 2026-04-25 22:41 | 27.90125 | -79.39975 | 32757 ft | 444 kts | 199° |
| 2026-04-25 22:41 | 27.87158 | -79.40932 | 32325 ft | 442 kts | 199° |
| 2026-04-25 22:41 | 27.84205 | -79.41883 | 31924 ft | 440 kts | 199° |
| 2026-04-25 22:41 | 27.81265 | -79.42829 | 31517 ft | 438 kts | 199° |
| 2026-04-25 22:42 | 27.78344 | -79.43769 | 31126 ft | 436 kts | 199° |
| 2026-04-25 22:42 | 27.75473 | -79.44693 | 30759 ft | 434 kts | 199° |
| 2026-04-25 22:42 | 27.72576 | -79.45624 | 30380 ft | 432 kts | 199° |
| 2026-04-25 22:42 | 27.69691 | -79.46552 | 30010 ft | 430 kts | 198° |
| 2026-04-25 22:43 | 27.66817 | -79.47475 | 29569 ft | 428 kts | 198° |
| 2026-04-25 22:43 | 27.63957 | -79.48394 | 29137 ft | 426 kts | 198° |
| 2026-04-25 22:43 | 27.61109 | -79.49307 | 28714 ft | 424 kts | 198° |
| 2026-04-25 22:43 | 27.58272 | -79.50218 | 28295 ft | 422 kts | 198° |
| 2026-04-25 22:44 | 27.55457 | -79.51120 | 27885 ft | 420 kts | 198° |
| 2026-04-25 22:44 | 27.52717 | -79.51998 | 27487 ft | 417 kts | 198° |
| 2026-04-25 22:44 | 27.49933 | -79.52890 | 27086 ft | 414 kts | 198° |
| 2026-04-25 22:44 | 27.47169 | -79.53775 | 26692 ft | 412 kts | 198° |
| 2026-04-25 22:45 | 27.44412 | -79.54658 | 26304 ft | 414 kts | 198° |
| 2026-04-25 22:45 | 27.41607 | -79.55557 | 25840 ft | 424 kts | 198° |
| 2026-04-25 22:45 | 27.38753 | -79.56466 | 25423 ft | 427 kts | 198° |
| 2026-04-25 22:45 | 27.35892 | -79.57368 | 24980 ft | 425 kts | 198° |
| 2026-04-25 22:46 | 27.33051 | -79.58260 | 24519 ft | 423 kts | 198° |
| 2026-04-25 22:46 | 27.30226 | -79.59148 | 24069 ft | 421 kts | 198° |
| 2026-04-25 22:46 | 27.27415 | -79.60032 | 23637 ft | 417 kts | 198° |
| 2026-04-25 22:46 | 27.24693 | -79.60889 | 23171 ft | 414 kts | 198° |
| 2026-04-25 22:47 | 27.21896 | -79.61769 | 22662 ft | 411 kts | 198° |
| 2026-04-25 22:47 | 27.19157 | -79.62630 | 22170 ft | 407 kts | 198° |
| 2026-04-25 22:47 | 27.16438 | -79.63492 | 21686 ft | 404 kts | 198° |
| 2026-04-25 22:47 | 27.13742 | -79.64355 | 21211 ft | 401 kts | 198° |
| 2026-04-25 22:48 | 27.11064 | -79.65214 | 20743 ft | 399 kts | 198° |
| 2026-04-25 22:48 | 27.08409 | -79.66066 | 20276 ft | 396 kts | 199° |
| 2026-04-25 22:48 | 27.05767 | -79.66912 | 19822 ft | 394 kts | 199° |
| 2026-04-25 22:48 | 27.03140 | -79.67753 | 19374 ft | 391 kts | 199° |
| 2026-04-25 22:49 | 27.00525 | -79.68590 | 18930 ft | 389 kts | 199° |
| 2026-04-25 22:49 | 26.97928 | -79.69420 | 18502 ft | 387 kts | 199° |
| 2026-04-25 22:49 | 26.95355 | -79.70241 | 18108 ft | 383 kts | 199° |
| 2026-04-25 22:49 | 26.92800 | -79.71056 | 17658 ft | 380 kts | 199° |
| 2026-04-25 22:50 | 26.90268 | -79.71864 | 17225 ft | 377 kts | 199° |
| 2026-04-25 22:50 | 26.87788 | -79.72655 | 16799 ft | 374 kts | 199° |
| 2026-04-25 22:50 | 26.85291 | -79.73451 | 16376 ft | 372 kts | 199° |
| 2026-04-25 22:50 | 26.82481 | -79.74346 | 15900 ft | 369 kts | 199° |
| 2026-04-25 22:51 | 26.69300 | -79.78526 | 13726 ft | 359 kts | 199° |
| 2026-04-25 22:51 | 26.66944 | -79.79426 | 13277 ft | 357 kts | 203° |
| 2026-04-25 22:51 | 26.64634 | -79.80409 | 12871 ft | 354 kts | 204° |
| 2026-04-25 22:51 | 26.62335 | -79.81392 | 12433 ft | 352 kts | 203° |
| 2026-04-25 22:52 | 26.60046 | -79.82348 | 12011 ft | 351 kts | 203° |
| 2026-04-25 22:52 | 26.57758 | -79.83287 | 11594 ft | 349 kts | 202° |
| 2026-04-25 22:52 | 26.55493 | -79.84210 | 11176 ft | 345 kts | 202° |
| 2026-04-25 22:52 | 26.54012 | -79.84843 | 10905 ft | 340 kts | 205° |
| 2026-04-25 22:53 | 26.51145 | -79.86191 | 10394 ft | 329 kts | 206° |
| 2026-04-25 22:53 | 26.49063 | -79.87193 | 10012 ft | 322 kts | 206° |
| 2026-04-25 22:53 | 26.47016 | -79.88174 | 9612 ft | 317 kts | 205° |
| 2026-04-25 22:53 | 26.45005 | -79.89129 | 9204 ft | 312 kts | 205° |
| 2026-04-25 22:54 | 26.43050 | -79.90050 | 8795 ft | 307 kts | 205° |
| 2026-04-25 22:54 | 26.41094 | -79.90969 | 8397 ft | 303 kts | 205° |
| 2026-04-25 22:54 | 26.39208 | -79.91854 | 8020 ft | 299 kts | 205° |
| 2026-04-25 22:54 | 26.37357 | -79.92793 | 8035 ft | 288 kts | 210° |
| 2026-04-25 22:55 | 26.35653 | -79.93883 | 8021 ft | 290 kts | 213° |
| 2026-04-25 22:55 | 26.33936 | -79.95034 | 8012 ft | 286 kts | 213° |
| 2026-04-25 22:55 | 26.32222 | -79.96169 | 8005 ft | 286 kts | 212° |
| 2026-04-25 22:55 | 26.30501 | -79.97290 | 8013 ft | 287 kts | 212° |
| 2026-04-25 22:56 | 26.28773 | -79.98404 | 8020 ft | 287 kts | 212° |
| 2026-04-25 22:56 | 26.27040 | -79.99517 | 8013 ft | 287 kts | 212° |
| 2026-04-25 22:56 | 26.25307 | -80.00630 | 8005 ft | 288 kts | 212° |
| 2026-04-25 22:56 | 26.23576 | -80.01744 | 8013 ft | 287 kts | 212° |
| 2026-04-25 22:57 | 26.21843 | -80.02857 | 8012 ft | 287 kts | 212° |
| 2026-04-25 22:57 | 26.20109 | -80.03970 | 7998 ft | 287 kts | 211° |
| 2026-04-25 22:57 | 26.18472 | -80.05224 | 7968 ft | 285 kts | 230° |
| 2026-04-25 22:57 | 26.17462 | -80.07062 | 8047 ft | 273 kts | 250° |
| 2026-04-25 22:58 | 26.16834 | -80.09040 | 7974 ft | 270 kts | 254° |
| 2026-04-25 22:58 | 26.16273 | -80.11010 | 7825 ft | 272 kts | 254° |
| 2026-04-25 22:58 | 26.15685 | -80.13041 | 7509 ft | 275 kts | 254° |
| 2026-04-25 22:58 | 26.15100 | -80.15081 | 7138 ft | 277 kts | 257° |
| 2026-04-25 22:59 | 26.14914 | -80.17183 | 6769 ft | 277 kts | 272° |
| 2026-04-25 22:59 | 26.14964 | -80.19318 | 6464 ft | 276 kts | 272° |
| 2026-04-25 22:59 | 26.15008 | -80.21450 | 6035 ft | 275 kts | 272° |
| 2026-04-25 22:59 | 26.15040 | -80.23573 | 5607 ft | 274 kts | 271° |
| 2026-04-25 23:00 | 26.15061 | -80.25716 | 5181 ft | 272 kts | 270° |
| 2026-04-25 23:00 | 26.15076 | -80.27782 | 4773 ft | 270 kts | 269° |
| 2026-04-25 23:00 | 26.15086 | -80.29868 | 4350 ft | 268 kts | 269° |
| 2026-04-25 23:00 | 26.15096 | -80.31932 | 4025 ft | 263 kts | 268° |
| 2026-04-25 23:01 | 26.15104 | -80.33909 | 4013 ft | 247 kts | 269° |
| 2026-04-25 23:01 | 26.15110 | -80.35774 | 3988 ft | 235 kts | 268° |
| 2026-04-25 23:01 | 26.15119 | -80.37579 | 3994 ft | 233 kts | 269° |
| 2026-04-25 23:01 | 26.15135 | -80.39375 | 3987 ft | 231 kts | 269° |
| 2026-04-25 23:02 | 26.15141 | -80.41151 | 3998 ft | 228 kts | 269° |
| 2026-04-25 23:02 | 26.15117 | -80.42863 | 3971 ft | 223 kts | 260° |
| 2026-04-25 23:02 | 26.14510 | -80.44397 | 4005 ft | 217 kts | 225° |
| 2026-04-25 23:02 | 26.13255 | -80.45253 | 4011 ft | 212 kts | 192° |
| 2026-04-25 23:03 | 26.11814 | -80.45434 | 4009 ft | 208 kts | 184° |
| 2026-04-25 23:03 | 26.10401 | -80.45339 | 3966 ft | 200 kts | 159° |
| 2026-04-25 23:03 | 26.09344 | -80.44435 | 3999 ft | 193 kts | 127° |
| 2026-04-25 23:03 | 26.08593 | -80.43184 | 3998 ft | 196 kts | 123° |
| 2026-04-25 23:04 | 26.07943 | -80.41882 | 3980 ft | 192 kts | 108° |
| 2026-04-25 23:04 | 26.07856 | -80.40916 | 4011 ft | 189 kts | 89° |
| 2026-04-25 23:04 | 26.07874 | -80.38896 | 3809 ft | 198 kts | 93° |
| 2026-04-25 23:04 | 26.07841 | -80.37366 | 3545 ft | 197 kts | 92° |
| 2026-04-25 23:05 | 26.07823 | -80.35873 | 3324 ft | 194 kts | 92° |
| 2026-04-25 23:05 | 26.07812 | -80.34350 | 3053 ft | 194 kts | 94° |
| 2026-04-25 23:05 | 26.07801 | -80.32865 | 2797 ft | 190 kts | 92° |
| 2026-04-25 23:05 | 26.07790 | -80.31421 | 2546 ft | 183 kts | 92° |
| 2026-04-25 23:06 | 26.07781 | -80.30031 | 2333 ft | 177 kts | 94° |
| 2026-04-25 23:06 | 26.07771 | -80.28696 | 2111 ft | 170 kts | 94° |
| 2026-04-25 23:06 | 26.07762 | -80.27348 | 1873 ft | 174 kts | 93° |
| 2026-04-25 23:06 | 26.07755 | -80.26066 | 1668 ft | 162 kts | 93° |
| 2026-04-25 23:07 | 26.07746 | -80.24891 | 1460 ft | 153 kts | 93° |
| 2026-04-25 23:07 | 26.07739 | -80.23702 | 1231 ft | 153 kts | 93° |
| 2026-04-25 23:07 | 26.07731 | -80.22546 | 1053 ft | 152 kts | 91° |
| 2026-04-25 23:07 | 26.07724 | -80.21410 | 893 ft | 149 kts | 93° |
| 2026-04-25 23:08 | 26.07716 | -80.20246 | 707 ft | 152 kts | 91° |
| 2026-04-25 23:08 | 26.07710 | -80.19082 | 473 ft | 151 kts | 91° |
| 2026-04-25 23:08 | 26.07707 | -80.17945 | 277 ft | 145 kts | 88° |
| 2026-04-25 23:08 | 26.07695 | -80.16821 | 94 ft | 146 kts | 89° |
| 2026-04-25 23:09 | 26.07691 | -80.15756 | 17 ft | 123 kts | 90° |
| 2026-04-25 23:09 | 26.07685 | -80.15048 | 15 ft | 62 kts | 91° |
| 2026-04-25 23:09 | 26.07677 | -80.14785 | 18 ft | 25 kts | 96° |
| 2026-04-25 23:09 | 26.07633 | -80.14604 | 18 ft | 24 kts | 114° |
| 2026-04-25 23:10 | 26.07562 | -80.14450 | 16 ft | 18 kts | 102° |
| 2026-04-25 23:10 | 26.07558 | -80.14330 | 16 ft | 15 kts | 90° |
| 2026-04-25 23:10 | 26.07558 | -80.14219 | 16 ft | 14 kts | 90° |
| 2026-04-25 23:10 | 26.07557 | -80.14114 | 16 ft | 13 kts | 91° |
| 2026-04-25 23:11 | 26.07556 | -80.14030 | 15 ft | 8 kts | 90° |
| 2026-04-25 23:11 | 26.07526 | -80.13983 | 15 ft | 8 kts | 159° |
| 2026-04-25 23:11 | 26.07483 | -80.13947 | 15 ft | 4 kts | 128° |
| 2026-04-25 23:11 | 26.07482 | -80.13918 | 15 ft | 4 kts | 91° |
| 2026-04-25 23:12 | 26.07477 | -80.13890 | 17 ft | 4 kts | 105° |
| 2026-04-25 23:12 | 26.07460 | -80.13871 | 15 ft | 4 kts | 165° |
| 2026-04-25 23:12 | 26.07435 | -80.13870 | 15 ft | 4 kts | 179° |
| 2026-04-25 23:12 | 26.07420 | -80.13870 | 15 ft | 1 kts | 180° |
| 2026-04-25 23:13 | 26.07417 | -80.13870 | 15 ft | 0 kts | 180° |